Time;durP1;ratioP1;P1;durP2;ratioP2;P2;SDS_P1;SDS_P2;PMS_P1;PMS_P2;Temp;Humidity;BMP_temperature;BMP_pressure;BME280_temperature;BME280_humidity;BME280_pressure;Samples;Min_cycle;Max_cycle;Signal;HPM_P1;HPM_P2
2021/05/17 00:02:21;;;;;;;1.70;0.80;;;13.20;99.90;;;;;;5075209;28;20542;-56
2021/05/17 00:04:49;;;;;;;1.33;0.83;;;13.30;99.90;;;;;;5056866;28;20177;-55
2021/05/17 00:07:15;;;;;;;1.07;0.90;;;13.30;99.90;;;;;;5074648;28;20823;-58
2021/05/17 00:09:41;;;;;;;2.40;0.90;;;13.20;99.90;;;;;;5074974;28;20408;-59
2021/05/17 00:12:08;;;;;;;1.20;0.70;;;13.10;99.90;;;;;;5075158;28;20745;-58
2021/05/17 00:14:34;;;;;;;1.43;0.80;;;13.10;99.90;;;;;;5057131;28;20162;-58
2021/05/17 00:17:00;;;;;;;0.90;0.50;;;13.10;99.90;;;;;;5074568;28;20472;-58
2021/05/17 00:19:26;;;;;;;1.77;1.10;;;13.00;99.90;;;;;;5074374;28;20652;-58
2021/05/17 00:21:52;;;;;;;1.60;0.80;;;13.10;99.90;;;;;;5056548;28;20405;-59
2021/05/17 00:24:19;;;;;;;2.33;0.90;;;13.00;99.90;;;;;;5056706;28;20178;-57
2021/05/17 00:26:46;;;;;;;1.30;0.70;;;13.00;99.90;;;;;;5074758;28;20474;-59
2021/05/17 00:29:12;;;;;;;1.97;0.80;;;12.90;99.90;;;;;;5074701;28;20402;-58
2021/05/17 00:31:39;;;;;;;0.80;0.70;;;12.80;99.90;;;;;;5074400;28;20976;-58
2021/05/17 00:34:07;;;;;;;1.23;0.70;;;12.90;99.90;;;;;;5074402;28;20399;-58
2021/05/17 00:36:33;;;;;;;3.50;0.77;;;13.00;99.90;;;;;;5076692;28;20453;-56
2021/05/17 00:39:00;;;;;;;1.73;0.83;;;12.80;99.90;;;;;;5074502;28;20527;-57
2021/05/17 00:41:28;;;;;;;1.20;0.80;;;12.90;99.90;;;;;;5074482;28;20409;-58
2021/05/17 00:43:55;;;;;;;1.30;0.90;;;12.90;99.90;;;;;;5074097;28;20405;-59
2021/05/17 00:46:23;;;;;;;1.43;0.83;;;12.80;99.90;;;;;;5073805;28;20428;-58
2021/05/17 00:48:50;;;;;;;1.90;1.10;;;12.80;99.90;;;;;;5055808;28;20798;-58
2021/05/17 00:51:16;;;;;;;1.80;1.03;;;12.80;99.90;;;;;;5056356;28;20512;-59
2021/05/17 00:53:42;;;;;;;2.80;0.90;;;12.90;99.90;;;;;;5074270;28;20488;-58
2021/05/17 00:56:09;;;;;;;0.90;0.63;;;12.80;99.90;;;;;;5073893;28;20509;-57
2021/05/17 00:58:34;;;;;;;1.20;0.80;;;13.00;99.90;;;;;;5073847;28;20405;-57
2021/05/17 01:01:01;;;;;;;1.30;0.70;;;13.10;99.90;;;;;;5065744;28;20416;-58
2021/05/17 01:03:27;;;;;;;0.83;0.70;;;13.10;99.90;;;;;;5054202;28;20168;-57
2021/05/17 01:05:53;;;;;;;2.40;0.80;;;13.20;99.90;;;;;;5053339;28;20476;-56
2021/05/17 01:08:30;;;;;;;1.23;0.90;;;13.20;99.90;;;;;;5090094;23;20225;-61
2021/05/17 01:11:01;;;;;;;1.20;0.70;;;13.00;99.90;;;;;;5074217;28;20148;-60
2021/05/17 01:13:27;;;;;;;1.77;0.90;;;12.90;99.90;;;;;;5074223;28;20392;-61
2021/05/17 01:15:54;;;;;;;1.40;0.50;;;13.00;99.90;;;;;;5072381;28;20808;-61
2021/05/17 01:18:20;;;;;;;1.87;0.50;;;13.00;99.90;;;;;;5073582;28;20178;-61
2021/05/17 01:20:48;;;;;;;0.90;0.70;;;13.00;99.90;;;;;;5073426;28;20772;-61
2021/05/17 01:25:53;;;;;;;1.50;0.90;;;12.80;99.90;;;;;;5073878;28;20399;-61
2021/05/17 01:28:22;;;;;;;1.10;0.80;;;12.60;99.90;;;;;;5073655;28;20448;-59
2021/05/17 01:30:49;;;;;;;1.07;0.83;;;12.70;99.90;;;;;;5073639;28;20815;-59
2021/05/17 01:33:15;;;;;;;1.37;0.87;;;12.80;99.90;;;;;;5073476;28;20407;-58
2021/05/17 01:35:42;;;;;;;1.87;0.73;;;12.80;99.90;;;;;;5073207;28;20442;-61
2021/05/17 01:38:08;;;;;;;1.40;0.70;;;12.60;99.90;;;;;;5073491;28;20191;-60
2021/05/17 01:40:38;;;;;;;1.80;1.03;;;12.50;99.90;;;;;;5073680;28;20501;-61
2021/05/17 01:43:07;;;;;;;1.20;0.60;;;12.60;99.90;;;;;;5073645;28;20411;-62
2021/05/17 01:45:33;;;;;;;1.20;0.80;;;12.60;99.90;;;;;;5073437;28;20842;-61
2021/05/17 01:47:59;;;;;;;1.40;0.90;;;12.40;99.90;;;;;;5073616;28;20507;-60
2021/05/17 01:50:25;;;;;;;1.53;0.90;;;12.50;99.90;;;;;;5073077;28;20439;-60
2021/05/17 01:52:52;;;;;;;0.80;0.70;;;12.60;99.90;;;;;;5073343;28;20169;-60
2021/05/17 01:55:18;;;;;;;1.00;0.70;;;12.70;99.90;;;;;;5066578;28;20461;-59
2021/05/17 01:57:44;;;;;;;1.13;0.83;;;12.70;99.90;;;;;;5053580;28;20555;-59
2021/05/17 02:00:13;;;;;;;1.83;0.70;;;12.70;99.90;;;;;;5059354;28;20488;-60
2021/05/17 02:02:39;;;;;;;1.80;0.70;;;12.70;99.90;;;;;;5077808;28;20496;-60
2021/05/17 02:05:06;;;;;;;2.73;0.77;;;12.60;99.90;;;;;;5077250;28;20470;-57
2021/05/17 02:07:32;;;;;;;0.90;0.67;;;12.50;99.90;;;;;;5076764;28;20206;-60
2021/05/17 02:09:59;;;;;;;1.87;0.70;;;12.50;99.90;;;;;;5077554;28;20479;-60
2021/05/17 02:12:25;;;;;;;1.10;0.60;;;12.60;99.90;;;;;;5077856;28;20191;-60
2021/05/17 02:14:53;;;;;;;1.77;0.90;;;12.40;99.90;;;;;;5077558;28;20404;-61
2021/05/17 02:17:25;;;;;;;1.40;0.80;;;12.50;99.90;;;;;;5077136;28;20462;-61
2021/05/17 02:19:51;;;;;;;2.77;0.90;;;12.50;99.90;;;;;;5076715;28;20808;-60
2021/05/17 02:22:18;;;;;;;2.93;1.03;;;12.40;99.90;;;;;;5076758;28;20409;-58
2021/05/17 02:24:46;;;;;;;1.27;0.70;;;12.50;99.90;;;;;;5077238;28;20301;-60
2021/05/17 02:27:16;;;;;;;2.00;0.90;;;12.30;99.90;;;;;;5079229;28;20949;-60
2021/05/17 02:29:43;;;;;;;2.73;0.73;;;12.40;99.90;;;;;;5076833;28;20420;-61
2021/05/17 02:32:09;;;;;;;2.07;0.87;;;12.40;99.90;;;;;;5058899;28;20415;-61
2021/05/17 02:34:35;;;;;;;1.73;0.80;;;12.30;99.90;;;;;;5056343;28;20928;-61
2021/05/17 02:37:02;;;;;;;2.23;1.00;;;12.30;99.90;;;;;;5056319;28;20441;-61
2021/05/17 02:39:28;;;;;;;2.17;0.80;;;12.40;99.90;;;;;;5057114;28;20404;-61
2021/05/17 02:41:55;;;;;;;1.17;0.60;;;12.30;99.90;;;;;;5057251;28;20397;-59
2021/05/17 02:44:22;;;;;;;2.40;0.87;;;12.20;99.90;;;;;;5056749;28;20492;-61
2021/05/17 02:46:50;;;;;;;1.27;0.87;;;12.20;99.90;;;;;;5056891;28;20721;-60
2021/05/17 02:49:16;;;;;;;1.43;0.90;;;12.40;99.90;;;;;;5056914;28;20416;-60
2021/05/17 02:51:42;;;;;;;2.23;1.30;;;12.40;99.90;;;;;;5056885;28;20405;-58
2021/05/17 02:54:13;;;;;;;1.43;0.80;;;12.50;99.90;;;;;;5057229;28;20181;-59
2021/05/17 02:56:57;;;;;;;2.17;0.90;;;12.50;99.90;;;;;;5057199;28;20282;-60
2021/05/17 02:59:52;;;;;;;2.60;1.00;;;12.50;99.90;;;;;;5056491;28;20384;-58
2021/05/17 03:02:21;;;;;;;4.07;1.20;;;12.60;99.90;;;;;;5052809;28;20417;-60
2021/05/17 03:04:51;;;;;;;1.10;1.00;;;12.50;99.90;;;;;;5056108;28;20963;-61
2021/05/17 03:07:19;;;;;;;1.63;1.10;;;12.50;99.90;;;;;;5056164;28;20425;-60
2021/05/17 03:09:45;;;;;;;0.90;0.60;;;12.40;99.90;;;;;;5055780;28;20396;-60
2021/05/17 03:12:11;;;;;;;1.00;0.70;;;12.60;99.90;;;;;;5056348;28;20405;-61
2021/05/17 03:14:41;;;;;;;2.93;1.00;;;12.50;99.90;;;;;;5055936;28;20177;-61
2021/05/17 03:17:10;;;;;;;2.23;0.60;;;12.50;99.90;;;;;;5056170;28;20967;-61
2021/05/17 03:19:37;;;;;;;1.30;0.60;;;12.60;99.90;;;;;;5055709;28;20924;-61
2021/05/17 03:22:04;;;;;;;1.00;0.60;;;12.60;99.90;;;;;;5055596;28;20404;-59
2021/05/17 03:24:35;;;;;;;1.43;0.60;;;12.50;99.90;;;;;;5055726;28;20911;-61
2021/05/17 03:27:26;;;;;;;1.50;0.60;;;12.40;99.90;;;;;;5055809;28;20455;-61
2021/05/17 03:29:52;;;;;;;1.77;0.80;;;12.30;99.90;;;;;;5055711;28;20900;-59
2021/05/17 03:32:18;;;;;;;2.13;0.83;;;12.10;99.90;;;;;;5056919;28;20487;-61
2021/05/17 03:34:44;;;;;;;2.67;0.70;;;12.00;99.90;;;;;;5075626;28;20247;-58
2021/05/17 03:37:10;;;;;;;0.80;0.57;;;12.00;99.90;;;;;;5075493;28;20456;-60
2021/05/17 03:39:36;;;;;;;1.73;0.70;;;12.10;99.90;;;;;;5075932;28;20257;-61
2021/05/17 03:42:01;;;;;;;1.90;0.63;;;11.90;99.90;;;;;;5075704;28;20503;-61
2021/05/17 03:44:28;;;;;;;1.43;0.70;;;11.90;99.90;;;;;;5075676;28;20158;-60
2021/05/17 03:46:53;;;;;;;7.90;0.90;;;12.00;99.90;;;;;;5075859;28;20190;-60
2021/05/17 03:49:19;;;;;;;1.33;0.60;;;12.10;99.90;;;;;;5075376;28;20405;-60
2021/05/17 03:51:44;;;;;;;1.37;0.70;;;12.00;99.90;;;;;;5075153;28;20257;-56
2021/05/17 03:54:10;;;;;;;1.30;0.70;;;12.00;99.90;;;;;;5075233;28;20180;-60
2021/05/17 03:56:36;;;;;;;1.20;0.70;;;12.10;99.90;;;;;;5075175;28;20201;-59
2021/05/17 03:59:02;;;;;;;2.97;1.00;;;12.30;99.90;;;;;;5075602;28;20262;-59
2021/05/17 04:01:28;;;;;;;1.17;0.63;;;12.30;99.90;;;;;;5075058;28;20180;-60
2021/05/17 04:03:55;;;;;;;2.67;0.70;;;12.30;99.90;;;;;;5057026;28;20435;-59
2021/05/17 04:06:59;;;;;;;1.90;0.70;;;12.30;99.90;;;;;;5075235;28;20180;-60
2021/05/17 04:14:40;;;;;;;1.00;0.60;;;12.30;99.90;;;;;;5075071;28;20371;-57
2021/05/17 04:17:06;;;;;;;1.30;0.60;;;12.20;99.90;;;;;;5074909;28;20453;-59
2021/05/17 04:19:31;;;;;;;2.07;0.93;;;12.20;99.90;;;;;;5074551;28;20171;-60
2021/05/17 04:21:57;;;;;;;1.73;0.80;;;12.40;99.90;;;;;;5073486;28;20401;-60
2021/05/17 04:24:22;;;;;;;1.00;0.90;;;12.50;99.90;;;;;;5074613;28;20158;-60
2021/05/17 04:26:48;;;;;;;1.60;0.67;;;12.50;99.90;;;;;;5074581;28;20654;-57
2021/05/17 04:29:14;;;;;;;2.27;0.83;;;12.30;99.90;;;;;;5074597;28;20202;-60
2021/05/17 04:31:39;;;;;;;1.17;0.60;;;12.40;99.90;;;;;;5074704;28;20183;-58
2021/05/17 04:34:05;;;;;;;1.87;0.80;;;12.30;99.90;;;;;;5074538;28;20547;-60
2021/05/17 04:36:31;;;;;;;1.03;0.60;;;12.10;99.90;;;;;;5076688;28;20185;-60
2021/05/17 04:38:59;;;;;;;1.57;0.80;;;12.20;99.90;;;;;;5074149;28;20290;-61
2021/05/17 04:41:25;;;;;;;1.27;0.50;;;12.20;99.90;;;;;;5074393;28;20397;-60
2021/05/17 04:43:51;;;;;;;5.70;0.83;;;12.30;99.90;;;;;;5074803;28;20404;-60
2021/05/17 04:46:17;;;;;;;7.77;1.10;;;12.40;99.90;;;;;;5072435;28;20411;-59
2021/05/17 04:48:49;;;;;;;1.77;1.17;;;12.50;99.90;;;;;;5063380;28;20816;-60
2021/05/17 04:51:19;;;;;;;0.90;0.77;;;12.60;99.90;;;;;;5073915;28;20158;-60
2021/05/17 04:53:45;;;;;;;1.53;0.87;;;12.50;99.90;;;;;;5074366;28;20384;-61
2021/05/17 04:56:11;;;;;;;1.53;0.57;;;12.30;99.90;;;;;;5074360;28;20455;-61
2021/05/17 04:58:37;;;;;;;1.07;0.80;;;12.40;99.90;;;;;;5073933;28;20201;-60
2021/05/17 05:01:03;;;;;;;2.40;0.90;;;12.40;99.90;;;;;;5074239;28;20256;-60
2021/05/17 05:03:29;;;;;;;1.60;0.80;;;12.30;99.90;;;;;;5073852;28;20247;-61
2021/05/17 05:05:57;;;;;;;1.67;0.90;;;12.40;99.90;;;;;;5055740;28;20948;-61
2021/05/17 05:08:22;;;;;;;1.07;0.70;;;12.30;99.90;;;;;;5073601;28;20691;-60
2021/05/17 05:10:48;;;;;;;1.47;0.70;;;12.40;99.90;;;;;;5073806;28;20412;-61
2021/05/17 05:13:13;;;;;;;1.23;0.80;;;12.40;99.90;;;;;;5073915;28;20201;-60
2021/05/17 05:15:39;;;;;;;1.97;0.90;;;12.40;99.90;;;;;;5073552;28;20311;-58
2021/05/17 05:18:04;;;;;;;1.27;0.60;;;12.40;99.90;;;;;;5073531;28;20619;-59
2021/05/17 05:20:31;;;;;;;1.60;0.70;;;12.30;99.90;;;;;;5073446;28;20174;-60
2021/05/17 05:22:57;;;;;;;0.90;0.60;;;12.20;99.90;;;;;;5073324;28;20252;-61
2021/05/17 05:25:26;;;;;;;1.93;0.70;;;12.10;99.90;;;;;;5073542;28;20440;-61
2021/05/17 05:27:55;;;;;;;0.90;0.70;;;12.30;99.90;;;;;;5073435;28;20869;-60
2021/05/17 05:30:29;;;;;;;1.83;0.60;;;12.20;99.90;;;;;;5073525;28;20393;-61
2021/05/17 05:33:06;;;;;;;2.70;0.97;;;12.40;99.90;;;;;;5073729;28;20388;-61
2021/05/17 05:35:32;;;;;;;1.33;0.70;;;12.40;99.90;;;;;;5073181;28;20447;-59
2021/05/17 05:37:58;;;;;;;0.90;0.70;;;12.50;99.90;;;;;;5072816;28;20792;-61
2021/05/17 05:40:23;;;;;;;1.67;0.80;;;12.60;99.90;;;;;;5073120;28;20404;-61
2021/05/17 05:42:49;;;;;;;1.57;0.60;;;12.60;99.90;;;;;;5073226;28;20661;-61
2021/05/17 05:45:14;;;;;;;0.90;0.70;;;12.60;99.90;;;;;;5073567;28;20626;-61
2021/05/17 05:47:40;;;;;;;1.73;0.60;;;12.70;99.90;;;;;;5073115;28;20199;-61
2021/05/17 05:50:07;;;;;;;0.80;0.60;;;12.50;99.90;;;;;;5072808;28;20165;-61
2021/05/17 05:52:32;;;;;;;3.53;0.70;;;12.70;99.90;;;;;;5073275;28;20169;-61
2021/05/17 05:55:03;;;;;;;1.33;0.60;;;12.80;99.90;;;;;;5072965;28;20525;-59
2021/05/17 05:57:29;;;;;;;2.47;0.60;;;12.90;99.90;;;;;;5073030;28;20573;-60
2021/05/17 05:59:55;;;;;;;0.70;0.50;;;12.90;99.90;;;;;;5073176;28;20578;-61
2021/05/17 06:02:21;;;;;;;4.20;0.93;;;13.00;99.90;;;;;;5073871;28;20412;-61
2021/05/17 06:04:46;;;;;;;2.97;0.90;;;12.90;99.90;;;;;;5072514;28;20177;-61
2021/05/17 06:07:12;;;;;;;4.00;0.70;;;12.80;99.90;;;;;;5072718;28;20202;-58
2021/05/17 06:09:38;;;;;;;3.93;0.90;;;13.00;99.90;;;;;;5071679;28;20584;-61
2021/05/17 06:12:04;;;;;;;2.37;0.80;;;13.30;99.90;;;;;;5072729;28;20178;-61
2021/05/17 06:14:31;;;;;;;1.00;0.50;;;13.20;99.90;;;;;;5072735;28;20173;-61
2021/05/17 06:16:57;;;;;;;0.90;0.60;;;13.10;99.90;;;;;;5072997;28;20458;-61
2021/05/17 06:19:23;;;;;;;0.90;0.50;;;12.90;99.90;;;;;;5072587;28;20969;-61
2021/05/17 06:21:49;;;;;;;2.07;0.60;;;13.10;99.90;;;;;;5072697;28;20401;-61
2021/05/17 06:24:19;;;;;;;0.80;0.60;;;13.30;99.90;;;;;;5072414;28;20923;-60
2021/05/17 06:26:44;;;;;;;1.07;0.60;;;13.60;99.90;;;;;;5072761;28;20920;-60
2021/05/17 06:29:10;;;;;;;0.80;0.50;;;13.50;99.90;;;;;;5073052;28;20499;-61
2021/05/17 06:31:40;;;;;;;2.03;0.93;;;13.40;99.90;;;;;;5073480;28;20618;-61
2021/05/17 06:34:07;;;;;;;1.40;1.10;;;13.60;99.90;;;;;;5073477;28;20243;-61
2021/05/17 06:36:32;;;;;;;1.40;0.60;;;13.70;99.90;;;;;;5072345;28;20448;-61
2021/05/17 06:38:58;;;;;;;0.90;0.63;;;13.60;99.90;;;;;;5072319;28;20420;-59
2021/05/17 06:41:23;;;;;;;1.70;0.63;;;13.70;99.90;;;;;;5075316;28;20218;-60
2021/05/17 06:43:49;;;;;;;0.70;0.60;;;13.60;99.90;;;;;;5073372;28;20174;-59
2021/05/17 06:46:15;;;;;;;2.37;0.80;;;13.70;99.90;;;;;;5075480;28;20207;-58
2021/05/17 06:48:44;;;;;;;2.50;0.80;;;13.50;99.90;;;;;;5076221;28;20193;-59
2021/05/17 06:51:16;;;;;;;2.40;1.00;;;13.60;99.90;;;;;;5076075;28;20677;-58
2021/05/17 06:53:44;;;;;;;3.27;0.70;;;13.70;99.90;;;;;;5076251;28;20396;-59
2021/05/17 06:56:39;;;;;;;1.40;0.70;;;14.10;99.90;;;;;;5076015;28;20440;-57
2021/05/17 06:59:00;;;;;;;0.90;0.60;;;14.30;99.90;;;;;;5074983;28;20438;-59
2021/05/17 07:01:29;;;;;;;1.00;0.60;;;14.30;99.90;;;;;;5064936;28;20421;-58
2021/05/17 07:03:56;;;;;;;1.57;0.70;;;14.10;99.90;;;;;;5056049;28;20484;-59
2021/05/17 07:06:25;;;;;;;1.10;0.70;;;14.00;99.90;;;;;;5055583;28;20917;-59
2021/05/17 07:11:48;;;;;;;0.70;0.57;;;13.80;99.90;;;;;;5076752;28;20385;-59
2021/05/17 07:14:14;;;;;;;2.20;0.80;;;13.80;99.90;;;;;;5076165;28;20378;-58
2021/05/17 07:16:41;;;;;;;6.57;1.03;;;14.00;99.90;;;;;;5075832;28;20823;-58
2021/05/17 07:19:06;;;;;;;0.80;0.60;;;14.00;99.90;;;;;;5075849;28;20824;-57
2021/05/17 07:24:20;;;;;;;1.33;0.87;;;14.00;99.90;;;;;;5075911;28;20151;-58
2021/05/17 07:26:46;;;;;;;1.30;0.87;;;13.90;99.90;;;;;;5076054;28;20450;-57
2021/05/17 07:29:11;;;;;;;1.10;0.60;;;14.10;99.90;;;;;;5075943;28;20442;-57
2021/05/17 07:31:37;;;;;;;1.70;0.70;;;13.80;99.90;;;;;;5075351;28;20408;-58
2021/05/17 07:34:03;;;;;;;1.47;0.60;;;13.70;99.90;;;;;;5075369;28;20171;-57
2021/05/17 07:36:29;;;;;;;1.07;0.93;;;13.60;99.90;;;;;;5074773;28;20658;-58
2021/05/17 07:38:54;;;;;;;0.70;0.53;;;13.50;99.90;;;;;;5066974;28;20823;-59
2021/05/17 07:41:20;;;;;;;2.47;0.97;;;13.60;99.90;;;;;;5063783;28;20174;-59
2021/05/17 07:43:46;;;;;;;1.10;0.60;;;13.50;99.90;;;;;;5075036;28;20575;-58
2021/05/17 07:46:13;;;;;;;2.00;0.60;;;13.60;99.90;;;;;;5075199;28;20394;-58
2021/05/17 07:51:23;;;;;;;0.90;0.60;;;14.10;99.90;;;;;;5075305;28;20446;-59
2021/05/17 07:53:49;;;;;;;1.70;0.80;;;14.30;99.90;;;;;;5074933;28;20402;-59
2021/05/17 07:56:16;;;;;;;2.80;0.73;;;14.40;99.90;;;;;;5074688;28;20475;-59
2021/05/17 07:58:42;;;;;;;1.90;1.10;;;14.30;99.90;;;;;;5074874;28;20220;-59
2021/05/17 08:01:08;;;;;;;1.40;1.30;;;14.30;99.90;;;;;;5075337;28;20401;-58
2021/05/17 08:03:34;;;;;;;2.10;0.80;;;14.30;99.90;;;;;;5074898;28;20397;-58
2021/05/17 08:06:00;;;;;;;1.83;1.13;;;14.50;99.90;;;;;;5074354;28;20411;-59
2021/05/17 08:08:26;;;;;;;1.17;0.67;;;14.60;99.90;;;;;;5070166;28;20482;-58
2021/05/17 08:10:51;;;;;;;1.23;0.60;;;14.80;99.90;;;;;;5061788;28;20186;-58
2021/05/17 08:13:17;;;;;;;1.80;0.80;;;15.10;99.90;;;;;;5061847;28;20174;-59
2021/05/17 08:15:42;;;;;;;1.13;0.60;;;15.20;99.90;;;;;;5054402;28;20562;-58
2021/05/17 08:18:08;;;;;;;1.50;0.77;;;15.40;99.90;;;;;;5054995;28;20182;-59
2021/05/17 08:20:34;;;;;;;1.43;0.50;;;15.30;99.90;;;;;;5054218;28;20664;-58
2021/05/17 08:23:00;;;;;;;1.10;0.60;;;15.00;99.90;;;;;;5054454;28;20174;-58
2021/05/17 08:25:26;;;;;;;1.13;0.70;;;14.70;99.90;;;;;;5054460;28;20162;-58
2021/05/17 08:27:51;;;;;;;1.20;0.90;;;15.00;99.90;;;;;;5054282;28;20430;-58
2021/05/17 08:30:17;;;;;;;1.87;0.80;;;15.00;99.90;;;;;;5056737;28;20243;-58
2021/05/17 08:32:43;;;;;;;1.03;0.63;;;15.20;99.90;;;;;;5074551;28;20196;-60
2021/05/17 08:35:09;;;;;;;0.90;0.80;;;15.30;99.90;;;;;;5073875;28;20447;-60
2021/05/17 08:37:34;;;;;;;1.00;0.60;;;15.80;99.90;;;;;;5073902;28;20565;-58
2021/05/17 08:40:00;;;;;;;1.10;0.70;;;16.10;99.90;;;;;;5073842;28;20402;-60
2021/05/17 08:42:27;;;;;;;0.90;0.70;;;15.90;99.90;;;;;;5076864;28;20278;-59
2021/05/17 08:44:54;;;;;;;2.30;0.77;;;15.80;99.90;;;;;;5074267;28;20772;-59
2021/05/17 08:47:19;;;;;;;2.63;0.70;;;16.00;99.90;;;;;;5074017;28;20445;-60
2021/05/17 08:49:45;;;;;;;1.07;0.83;;;16.00;99.90;;;;;;5073870;28;20428;-59
2021/05/17 08:52:11;;;;;;;1.73;0.70;;;16.40;99.90;;;;;;5073900;28;20179;-59
2021/05/17 08:54:37;;;;;;;0.90;0.70;;;16.10;99.90;;;;;;5073893;28;20181;-58
2021/05/17 08:57:03;;;;;;;2.17;0.90;;;16.00;99.90;;;;;;5074177;28;20447;-58
2021/05/17 08:59:30;;;;;;;2.30;0.67;;;16.30;99.90;;;;;;5061736;28;20777;-59
2021/05/17 09:01:56;;;;;;;3.83;0.97;;;16.50;99.90;;;;;;5084036;28;20399;-59
2021/05/17 09:04:22;;;;;;;1.57;0.70;;;16.60;99.90;;;;;;5091116;28;20417;-58
2021/05/17 09:06:56;;;;;;;2.20;1.03;;;16.50;99.90;;;;;;5090606;28;20489;-58
2021/05/17 09:09:33;;;;;;;1.80;0.70;;;16.10;99.90;;;;;;5082905;28;20210;-58
2021/05/17 09:12:03;;;;;;;1.57;0.70;;;16.40;99.90;;;;;;5091923;28;20438;-56
2021/05/17 09:14:32;;;;;;;0.80;0.60;;;16.50;99.90;;;;;;5091911;28;20426;-59
2021/05/17 09:17:08;;;;;;;1.00;0.60;;;17.10;99.90;;;;;;5087243;28;20448;-59
2021/05/17 09:19:36;;;;;;;1.07;0.70;;;18.10;99.70;;;;;;5075452;28;20418;-59
2021/05/17 09:22:07;;;;;;;0.87;0.50;;;17.50;99.10;;;;;;5085415;28;20457;-59
2021/05/17 09:24:40;;;;;;;1.57;0.70;;;16.90;99.90;;;;;;5073251;28;20376;-57
2021/05/17 09:27:08;;;;;;;1.90;0.70;;;16.40;99.90;;;;;;5073762;28;20430;-59
2021/05/17 09:29:39;;;;;;;1.97;0.77;;;16.10;99.90;;;;;;5073546;28;20426;-60
2021/05/17 09:32:13;;;;;;;2.17;0.67;;;16.10;99.90;;;;;;5073511;28;20396;-59
2021/05/17 09:34:39;;;;;;;1.07;0.80;;;16.40;99.90;;;;;;5073467;28;20831;-59
2021/05/17 09:37:08;;;;;;;0.90;0.60;;;16.30;99.90;;;;;;5072740;28;20539;-58
2021/05/17 09:39:36;;;;;;;1.87;0.70;;;16.50;99.90;;;;;;5072831;28;20189;-59
2021/05/17 09:42:04;;;;;;;1.30;0.60;;;16.60;99.90;;;;;;5073164;28;20421;-57
2021/05/17 09:44:30;;;;;;;1.17;0.60;;;16.60;99.50;;;;;;5073271;28;20422;-59
2021/05/17 09:47:05;;;;;;;1.53;0.77;;;16.50;99.90;;;;;;5073378;28;20429;-58
2021/05/17 09:49:49;;;;;;;2.10;0.73;;;16.40;99.90;;;;;;5072953;28;20431;-59
2021/05/17 09:52:16;;;;;;;1.83;0.70;;;16.60;99.90;;;;;;5072735;28;20391;-58
2021/05/17 09:55:07;;;;;;;1.73;0.80;;;16.50;99.90;;;;;;5072661;28;20400;-59
2021/05/17 09:57:50;;;;;;;0.90;0.60;;;16.60;99.90;;;;;;5073063;28;20510;-59
2021/05/17 10:00:28;;;;;;;1.47;0.70;;;16.50;99.90;;;;;;5073129;28;20752;-58
2021/05/17 10:02:56;;;;;;;2.10;0.60;;;16.80;99.90;;;;;;5073090;28;20379;-59
2021/05/17 10:05:31;;;;;;;1.53;0.67;;;17.00;99.90;;;;;;5073017;28;20396;-59
2021/05/17 10:07:59;;;;;;;1.83;0.70;;;17.10;99.90;;;;;;5072936;28;20485;-59
2021/05/17 10:10:27;;;;;;;1.57;0.80;;;17.40;99.90;;;;;;5072699;28;20454;-60
2021/05/17 10:12:55;;;;;;;1.20;0.50;;;17.50;99.80;;;;;;5073703;28;20412;-60
2021/05/17 10:15:23;;;;;;;1.30;0.70;;;17.70;99.70;;;;;;5072333;28;20457;-60
2021/05/17 10:17:49;;;;;;;3.50;0.90;;;17.40;99.90;;;;;;5072674;28;20465;-57
2021/05/17 10:20:18;;;;;;;1.10;0.60;;;17.40;99.20;;;;;;5073355;28;20489;-60
2021/05/17 10:22:45;;;;;;;0.80;0.50;;;17.30;99.50;;;;;;5076597;28;20400;-58
2021/05/17 10:25:13;;;;;;;1.10;0.50;;;17.50;99.30;;;;;;5077330;28;20656;-60
2021/05/17 10:27:47;;;;;;;1.40;0.70;;;17.30;98.90;;;;;;5076672;28;20442;-59
2021/05/17 10:30:15;;;;;;;0.97;0.60;;;17.00;99.30;;;;;;5076350;28;20400;-59
2021/05/17 10:33:02;;;;;;;1.77;0.90;;;17.30;99.80;;;;;;5076532;28;20420;-58
2021/05/17 10:35:41;;;;;;;1.20;0.70;;;17.40;99.60;;;;;;5076392;28;20761;-57
2021/05/17 10:41:15;;;;;;;1.47;0.80;;;17.30;99.90;;;;;;5076714;28;20412;-59
2021/05/17 10:46:44;;;;;;;1.50;0.80;;;15.50;99.90;;;;;;5076569;28;20432;-56
2021/05/17 10:49:20;;;;;;;3.53;1.27;;;15.10;99.90;;;;;;5068228;28;20439;-58
2021/05/17 10:51:47;;;;;;;1.40;1.00;;;15.00;99.90;;;;;;5080315;28;20423;-59
2021/05/17 10:54:27;;;;;;;2.80;0.90;;;15.00;99.90;;;;;;5094858;28;20419;-58
2021/05/17 10:56:57;;;;;;;1.07;0.70;;;15.00;99.90;;;;;;5095401;28;20456;-58
2021/05/17 11:02:31;;;;;;;1.20;0.70;;;15.60;99.90;;;;;;5084764;28;20390;-58
2021/05/17 11:05:11;;;;;;;1.20;0.90;;;16.20;99.90;;;;;;5079783;28;20428;-60
2021/05/17 11:08:02;;;;;;;3.10;0.70;;;16.30;99.90;;;;;;5078455;28;20441;-58
2021/05/17 11:10:42;;;;;;;1.50;0.90;;;16.90;99.90;;;;;;5093751;28;20907;-59
2021/05/17 11:13:17;;;;;;;2.80;0.77;;;17.50;99.90;;;;;;5095014;28;20407;-59
2021/05/17 11:15:59;;;;;;;1.90;0.70;;;17.90;99.90;;;;;;5092014;28;20540;-60
2021/05/17 11:18:34;;;;;;;1.10;0.70;;;18.10;99.90;;;;;;5077436;28;20427;-60
2021/05/17 11:21:06;;;;;;;1.30;0.60;;;18.60;99.90;;;;;;5094711;28;20415;-59
2021/05/17 11:23:31;;;;;;;2.97;1.20;;;18.30;99.90;;;;;;5092075;28;21293;-58
2021/05/17 11:26:07;;;;;;;1.17;0.80;;;17.90;99.90;;;;;;5085608;28;20426;-59
2021/05/17 11:28:39;;;;;;;1.50;0.73;;;17.10;99.90;;;;;;5094993;28;20207;-59
2021/05/17 11:31:21;;;;;;;1.43;0.80;;;16.50;99.90;;;;;;5059113;28;20417;-61
2021/05/17 11:33:47;;;;;;;1.87;1.00;;;16.40;99.90;;;;;;5073859;28;20498;-60
2021/05/17 11:36:14;;;;;;;1.23;0.80;;;16.30;99.90;;;;;;5094495;28;20507;-60
2021/05/17 11:39:10;;;;;;;1.80;0.70;;;16.10;99.90;;;;;;5093804;28;20948;-59
2021/05/17 11:41:50;;;;;;;2.73;1.10;;;16.10;99.90;;;;;;5092286;28;20489;-59
2021/05/17 11:44:28;;;;;;;1.30;0.63;;;16.00;99.90;;;;;;5093971;28;20411;-58
2021/05/17 11:47:06;;;;;;;3.30;0.87;;;16.10;99.90;;;;;;5094303;28;20419;-60
2021/05/17 11:49:34;;;;;;;2.67;1.00;;;16.00;99.90;;;;;;5060086;28;20847;-59
2021/05/17 11:52:20;;;;;;;1.87;0.70;;;15.80;99.90;;;;;;5068303;28;21020;-59
2021/05/17 11:54:50;;;;;;;1.37;1.00;;;16.70;99.90;;;;;;5089992;28;20457;-60
2021/05/17 11:57:18;;;;;;;2.23;0.77;;;18.20;99.90;;;;;;5094799;28;20789;-58
2021/05/17 11:59:44;;;;;;;2.10;0.87;;;20.20;99.90;;;;;;5094082;28;20451;-60
2021/05/17 12:02:11;;;;;;;1.53;0.80;;;21.10;99.90;;;;;;5091601;28;20836;-60
2021/05/17 12:04:41;;;;;;;1.20;0.90;;;22.50;98.40;;;;;;5093753;28;20767;-57
2021/05/17 12:07:18;;;;;;;1.60;0.80;;;22.60;97.50;;;;;;5090672;28;20430;-59
2021/05/17 12:09:45;;;;;;;1.40;0.80;;;22.00;96.60;;;;;;5092834;28;20943;-60
2021/05/17 12:12:15;;;;;;;1.70;0.70;;;21.30;95.60;;;;;;5093645;28;20502;-59
2021/05/17 12:15:03;;;;;;;1.63;0.90;;;20.10;98.90;;;;;;5093193;28;20907;-58
2021/05/17 12:17:33;;;;;;;0.87;0.70;;;19.30;99.60;;;;;;5093294;28;20523;-59
2021/05/17 12:20:07;;;;;;;1.67;0.70;;;18.60;99.50;;;;;;5093186;28;20446;-58
2021/05/17 12:22:39;;;;;;;1.90;0.73;;;18.00;97.60;;;;;;5093196;28;20411;-56
2021/05/17 12:25:26;;;;;;;1.60;0.67;;;18.10;99.90;;;;;;5092980;28;20434;-58
2021/05/17 12:27:54;;;;;;;1.43;0.60;;;18.50;98.10;;;;;;5093832;28;20438;-58
2021/05/17 12:30:24;;;;;;;1.00;0.50;;;18.70;97.60;;;;;;5087669;28;20487;-59
2021/05/17 12:32:59;;;;;;;1.20;0.90;;;19.70;95.40;;;;;;5054280;28;20412;-58
2021/05/17 12:35:33;;;;;;;0.83;0.50;;;21.40;95.10;;;;;;5054302;28;20908;-57
2021/05/17 12:38:02;;;;;;;2.80;0.60;;;23.10;90.30;;;;;;5074119;28;20432;-59
2021/05/17 12:40:40;;;;;;;2.37;0.60;;;23.60;89.40;;;;;;5065415;28;20422;-59
2021/05/17 12:43:07;;;;;;;1.43;0.50;;;24.60;91.00;;;;;;5086425;28;20461;-59
2021/05/17 12:45:35;;;;;;;1.80;0.60;;;23.70;83.50;;;;;;5085807;28;20403;-57
2021/05/17 12:48:05;;;;;;;1.10;0.47;;;21.90;85.70;;;;;;5093782;28;20423;-58
2021/05/17 12:50:34;;;;;;;0.70;0.50;;;21.10;87.90;;;;;;5092489;28;20452;-58
2021/05/17 12:53:14;;;;;;;0.80;0.50;;;20.00;90.20;;;;;;5092679;28;20511;-58
2021/05/17 12:55:46;;;;;;;0.70;0.60;;;19.50;91.00;;;;;;5092766;28;20771;-56
2021/05/17 12:58:13;;;;;;;2.20;0.60;;;19.40;93.10;;;;;;5089462;28;20427;-57
2021/05/17 13:00:54;;;;;;;1.00;0.70;;;19.40;92.40;;;;;;5087837;28;20989;-59
2021/05/17 13:03:20;;;;;;;0.70;0.40;;;19.50;92.60;;;;;;5092679;28;20503;-59
2021/05/17 13:05:55;;;;;;;0.77;0.57;;;21.10;89.90;;;;;;5092853;28;20411;-57
2021/05/17 13:08:25;;;;;;;0.70;0.50;;;20.60;91.00;;;;;;5114446;22;20457;-57
2021/05/17 13:11:05;;;;;;;0.97;0.50;;;20.10;90.30;;;;;;5051709;28;20418;-62
2021/05/17 13:13:41;;;;;;;0.70;0.50;;;20.20;90.60;;;;;;5052834;28;20397;-60
2021/05/17 13:16:16;;;;;;;4.97;0.60;;;21.50;92.20;;;;;;5052069;28;20456;-63
2021/05/17 13:19:17;;;;;;;1.50;0.60;;;22.80;85.70;;;;;;5047376;28;20438;-60
2021/05/17 13:25:10;;;;;;;1.17;0.60;;;24.00;78.90;;;;;;5032172;28;20520;-62
2021/05/17 13:30:47;;;;;;;1.20;0.60;;;23.80;75.90;;;;;;5027470;28;20408;-62